sensor_id;sensor_type;location;lat;lon;timestamp;pressure;altitude;pressure_sealevel;temperature
74043;BMP280;62384;53.600;10.040;2023-04-25T00:01:08;58805.72;;;8.61
74043;BMP280;62384;53.600;10.040;2023-04-25T00:03:34;58664.88;;;8.50
74043;BMP280;62384;53.600;10.040;2023-04-25T00:06:00;58469.94;;;8.60
74043;BMP280;62384;53.600;10.040;2023-04-25T00:08:29;58472.75;;;8.54
74043;BMP280;62384;53.600;10.040;2023-04-25T00:10:54;58081.38;;;8.49
74043;BMP280;62384;53.600;10.040;2023-04-25T00:13:20;58040.16;;;8.47
74043;BMP280;62384;53.600;10.040;2023-04-25T00:15:46;57783.66;;;8.46
74043;BMP280;62384;53.600;10.040;2023-04-25T00:18:14;58815.72;;;8.45
74043;BMP280;62384;53.600;10.040;2023-04-25T00:20:39;59485.44;;;8.48
74043;BMP280;62384;53.600;10.040;2023-04-25T00:23:05;60118.03;;;8.41
74043;BMP280;62384;53.600;10.040;2023-04-25T00:25:30;59901.31;;;8.41
74043;BMP280;62384;53.600;10.040;2023-04-25T00:27:56;59415.06;;;8.52
74043;BMP280;62384;53.600;10.040;2023-04-25T00:30:21;60023.06;;;8.56
74043;BMP280;62384;53.600;10.040;2023-04-25T00:32:46;59978.66;;;8.54
74043;BMP280;62384;53.600;10.040;2023-04-25T00:35:12;61248.59;;;8.49
74043;BMP280;62384;53.600;10.040;2023-04-25T00:37:37;61481.75;;;8.50
74043;BMP280;62384;53.600;10.040;2023-04-25T00:40:05;63810.38;;;8.47
74043;BMP280;62384;53.600;10.040;2023-04-25T00:42:31;64154.97;;;8.45
74043;BMP280;62384;53.600;10.040;2023-04-25T00:44:57;64830.34;;;8.39
74043;BMP280;62384;53.600;10.040;2023-04-25T00:47:23;65214.63;;;8.37
74043;BMP280;62384;53.600;10.040;2023-04-25T00:49:48;66590.91;;;8.31
74043;BMP280;62384;53.600;10.040;2023-04-25T00:52:14;66637.59;;;7.90
74043;BMP280;62384;53.600;10.040;2023-04-25T00:54:39;66648.25;;;8.20
74043;BMP280;62384;53.600;10.040;2023-04-25T00:57:05;66331.03;;;8.14
74043;BMP280;62384;53.600;10.040;2023-04-25T00:59:31;65797.81;;;8.15
74043;BMP280;62384;53.600;10.040;2023-04-25T01:01:56;65783.50;;;8.22
74043;BMP280;62384;53.600;10.040;2023-04-25T01:04:22;66845.97;;;8.19
74043;BMP280;62384;53.600;10.040;2023-04-25T01:06:48;65492.91;;;8.22
74043;BMP280;62384;53.600;10.040;2023-04-25T01:09:14;66067.59;;;8.18
74043;BMP280;62384;53.600;10.040;2023-04-25T01:11:39;66621.84;;;8.20
74043;BMP280;62384;53.600;10.040;2023-04-25T01:14:05;67382.25;;;8.05
74043;BMP280;62384;53.600;10.040;2023-04-25T01:16:31;68143.50;;;8.05
74043;BMP280;62384;53.600;10.040;2023-04-25T01:18:56;68156.31;;;8.02
74043;BMP280;62384;53.600;10.040;2023-04-25T01:21:22;68654.94;;;8.01
74043;BMP280;62384;53.600;10.040;2023-04-25T01:23:47;69409.81;;;7.92
74043;BMP280;62384;53.600;10.040;2023-04-25T01:26:13;69028.56;;;7.92
74043;BMP280;62384;53.600;10.040;2023-04-25T01:28:39;68512.28;;;7.99
74043;BMP280;62384;53.600;10.040;2023-04-25T01:31:08;69298.75;;;7.92
74043;BMP280;62384;53.600;10.040;2023-04-25T01:33:34;68982.91;;;7.42
74043;BMP280;62384;53.600;10.040;2023-04-25T01:35:59;68683.19;;;7.80
74043;BMP280;62384;53.600;10.040;2023-04-25T01:38:25;69416.75;;;7.89
74043;BMP280;62384;53.600;10.040;2023-04-25T01:40:51;70213.84;;;7.82
74043;BMP280;62384;53.600;10.040;2023-04-25T01:43:17;70295.38;;;7.72
74043;BMP280;62384;53.600;10.040;2023-04-25T01:45:42;70244.00;;;7.81
74043;BMP280;62384;53.600;10.040;2023-04-25T01:48:09;71033.75;;;7.77
74043;BMP280;62384;53.600;10.040;2023-04-25T01:50:38;70489.94;;;7.78
74043;BMP280;62384;53.600;10.040;2023-04-25T01:53:04;71226.66;;;7.57
74043;BMP280;62384;53.600;10.040;2023-04-25T01:55:29;70932.69;;;7.79
74043;BMP280;62384;53.600;10.040;2023-04-25T01:57:55;70924.25;;;7.81
74043;BMP280;62384;53.600;10.040;2023-04-25T02:00:20;71878.28;;;7.56
74043;BMP280;62384;53.600;10.040;2023-04-25T02:02:46;71662.09;;;7.66
74043;BMP280;62384;53.600;10.040;2023-04-25T02:05:11;72160.66;;;7.50
74043;BMP280;62384;53.600;10.040;2023-04-25T02:07:36;72530.00;;;7.71
74043;BMP280;62384;53.600;10.040;2023-04-25T02:10:02;72729.63;;;7.75
74043;BMP280;62384;53.600;10.040;2023-04-25T02:12:28;72797.88;;;7.42
74043;BMP280;62384;53.600;10.040;2023-04-25T02:14:53;73023.13;;;7.67
74043;BMP280;62384;53.600;10.040;2023-04-25T02:17:19;73246.25;;;7.49
74043;BMP280;62384;53.600;10.040;2023-04-25T02:19:46;73158.13;;;7.55
74043;BMP280;62384;53.600;10.040;2023-04-25T02:22:11;73138.38;;;7.37
74043;BMP280;62384;53.600;10.040;2023-04-25T02:24:36;72961.44;;;7.59
74043;BMP280;62384;53.600;10.040;2023-04-25T02:27:02;72987.53;;;7.64
74043;BMP280;62384;53.600;10.040;2023-04-25T02:29:27;72885.16;;;7.57
74043;BMP280;62384;53.600;10.040;2023-04-25T02:31:53;72606.34;;;7.59
74043;BMP280;62384;53.600;10.040;2023-04-25T02:34:18;72798.63;;;7.65
74043;BMP280;62384;53.600;10.040;2023-04-25T02:36:43;72831.41;;;7.64
74043;BMP280;62384;53.600;10.040;2023-04-25T02:39:09;72846.19;;;7.63
74043;BMP280;62384;53.600;10.040;2023-04-25T02:41:35;72826.06;;;7.61
74043;BMP280;62384;53.600;10.040;2023-04-25T02:44:00;72697.47;;;7.62
74043;BMP280;62384;53.600;10.040;2023-04-25T02:46:25;72659.81;;;7.59
74043;BMP280;62384;53.600;10.040;2023-04-25T02:48:51;72958.44;;;7.64
74043;BMP280;62384;53.600;10.040;2023-04-25T02:51:16;72995.28;;;7.59
74043;BMP280;62384;53.600;10.040;2023-04-25T02:53:41;72836.09;;;7.61
74043;BMP280;62384;53.600;10.040;2023-04-25T02:56:07;73211.44;;;7.51
74043;BMP280;62384;53.600;10.040;2023-04-25T02:58:32;73041.88;;;7.31
74043;BMP280;62384;53.600;10.040;2023-04-25T03:00:57;72868.03;;;7.36
74043;BMP280;62384;53.600;10.040;2023-04-25T03:03:23;73262.06;;;7.34
74043;BMP280;62384;53.600;10.040;2023-04-25T03:05:49;73418.91;;;7.27
74043;BMP280;62384;53.600;10.040;2023-04-25T03:08:16;73697.03;;;7.35
74043;BMP280;62384;53.600;10.040;2023-04-25T03:10:41;73856.69;;;7.02
74043;BMP280;62384;53.600;10.040;2023-04-25T03:13:07;74029.16;;;7.03
74043;BMP280;62384;53.600;10.040;2023-04-25T03:15:32;73957.63;;;6.91
74043;BMP280;62384;53.600;10.040;2023-04-25T03:17:57;74017.84;;;7.19
74043;BMP280;62384;53.600;10.040;2023-04-25T03:20:22;74093.19;;;7.13
74043;BMP280;62384;53.600;10.040;2023-04-25T03:22:48;74066.59;;;7.10
74043;BMP280;62384;53.600;10.040;2023-04-25T03:25:13;74012.31;;;7.14
74043;BMP280;62384;53.600;10.040;2023-04-25T03:27:38;74384.59;;;7.11
74043;BMP280;62384;53.600;10.040;2023-04-25T03:30:04;74240.03;;;7.00
74043;BMP280;62384;53.600;10.040;2023-04-25T03:32:30;74310.47;;;7.01
74043;BMP280;62384;53.600;10.040;2023-04-25T03:34:55;74209.97;;;7.01
74043;BMP280;62384;53.600;10.040;2023-04-25T03:37:20;74333.31;;;7.03
74043;BMP280;62384;53.600;10.040;2023-04-25T03:39:46;74295.66;;;6.93
74043;BMP280;62384;53.600;10.040;2023-04-25T03:42:11;74459.31;;;6.88
74043;BMP280;62384;53.600;10.040;2023-04-25T03:44:36;74476.13;;;6.86
74043;BMP280;62384;53.600;10.040;2023-04-25T03:47:02;74586.63;;;6.86
74043;BMP280;62384;53.600;10.040;2023-04-25T03:49:27;74639.91;;;6.83
74043;BMP280;62384;53.600;10.040;2023-04-25T03:51:52;74534.38;;;6.79
74043;BMP280;62384;53.600;10.040;2023-04-25T03:54:17;74691.13;;;6.82
74043;BMP280;62384;53.600;10.040;2023-04-25T03:56:43;74782.47;;;6.64
74043;BMP280;62384;53.600;10.040;2023-04-25T03:59:08;74769.72;;;6.79
74043;BMP280;62384;53.600;10.040;2023-04-25T04:01:33;74750.91;;;6.67
74043;BMP280;62384;53.600;10.040;2023-04-25T04:03:58;74601.28;;;6.75
74043;BMP280;62384;53.600;10.040;2023-04-25T04:06:23;74838.66;;;6.81
74043;BMP280;62384;53.600;10.040;2023-04-25T04:08:49;74784.31;;;6.75
74043;BMP280;62384;53.600;10.040;2023-04-25T04:11:14;74693.44;;;6.53
74043;BMP280;62384;53.600;10.040;2023-04-25T04:13:39;74826.22;;;6.77
74043;BMP280;62384;53.600;10.040;2023-04-25T04:16:05;74861.19;;;6.71
74043;BMP280;62384;53.600;10.040;2023-04-25T04:18:30;74904.25;;;6.67
74043;BMP280;62384;53.600;10.040;2023-04-25T04:20:55;74866.69;;;6.59
74043;BMP280;62384;53.600;10.040;2023-04-25T04:23:23;74804.09;;;6.41
74043;BMP280;62384;53.600;10.040;2023-04-25T04:25:48;74869.34;;;6.59
74043;BMP280;62384;53.600;10.040;2023-04-25T04:28:13;74921.47;;;6.56
74043;BMP280;62384;53.600;10.040;2023-04-25T04:30:40;74958.28;;;6.61
74043;BMP280;62384;53.600;10.040;2023-04-25T04:33:06;74965.09;;;6.60
74043;BMP280;62384;53.600;10.040;2023-04-25T04:35:33;75019.47;;;6.59
74043;BMP280;62384;53.600;10.040;2023-04-25T04:37:58;74900.81;;;6.26
74043;BMP280;62384;53.600;10.040;2023-04-25T04:40:23;75045.53;;;6.47
74043;BMP280;62384;53.600;10.040;2023-04-25T04:42:50;75156.56;;;6.40
74043;BMP280;62384;53.600;10.040;2023-04-25T04:45:15;75248.53;;;6.67
74043;BMP280;62384;53.600;10.040;2023-04-25T04:47:41;75168.06;;;6.66
74043;BMP280;62384;53.600;10.040;2023-04-25T04:50:12;75347.75;;;6.78
74043;BMP280;62384;53.600;10.040;2023-04-25T04:52:38;75282.22;;;6.78
74043;BMP280;62384;53.600;10.040;2023-04-25T04:55:04;75357.00;;;6.81
74043;BMP280;62384;53.600;10.040;2023-04-25T04:57:30;75472.66;;;6.86
74043;BMP280;62384;53.600;10.040;2023-04-25T04:59:56;75414.09;;;6.88
74043;BMP280;62384;53.600;10.040;2023-04-25T05:02:21;75432.84;;;6.97
74043;BMP280;62384;53.600;10.040;2023-04-25T05:04:46;75379.00;;;6.99
74043;BMP280;62384;53.600;10.040;2023-04-25T05:07:12;75455.13;;;6.98
74043;BMP280;62384;53.600;10.040;2023-04-25T05:09:37;75490.66;;;6.99
74043;BMP280;62384;53.600;10.040;2023-04-25T05:12:03;75495.41;;;7.06
74043;BMP280;62384;53.600;10.040;2023-04-25T05:14:30;75540.78;;;7.04
74043;BMP280;62384;53.600;10.040;2023-04-25T05:16:56;75503.75;;;7.04
74043;BMP280;62384;53.600;10.040;2023-04-25T05:19:21;75461.56;;;6.99
74043;BMP280;62384;53.600;10.040;2023-04-25T05:21:46;75217.59;;;6.99
74043;BMP280;62384;53.600;10.040;2023-04-25T05:24:11;75126.13;;;6.93
74043;BMP280;62384;53.600;10.040;2023-04-25T05:26:37;74963.25;;;6.94
74043;BMP280;62384;53.600;10.040;2023-04-25T05:29:02;74775.16;;;6.89
74043;BMP280;62384;53.600;10.040;2023-04-25T05:31:28;74799.69;;;6.92
74043;BMP280;62384;53.600;10.040;2023-04-25T05:33:53;74725.06;;;6.91
74043;BMP280;62384;53.600;10.040;2023-04-25T05:36:19;74515.34;;;6.78
74043;BMP280;62384;53.600;10.040;2023-04-25T05:38:44;74544.59;;;6.98
74043;BMP280;62384;53.600;10.040;2023-04-25T05:41:10;74609.19;;;6.99
74043;BMP280;62384;53.600;10.040;2023-04-25T05:43:35;74515.88;;;6.96
74043;BMP280;62384;53.600;10.040;2023-04-25T05:46:00;74561.81;;;6.94
74043;BMP280;62384;53.600;10.040;2023-04-25T05:48:25;74578.88;;;7.05
74043;BMP280;62384;53.600;10.040;2023-04-25T05:50:52;74642.22;;;7.19
74043;BMP280;62384;53.600;10.040;2023-04-25T05:53:18;74687.03;;;7.16
74043;BMP280;62384;53.600;10.040;2023-04-25T05:55:44;74878.69;;;7.17
74043;BMP280;62384;53.600;10.040;2023-04-25T05:58:09;74849.34;;;7.22
74043;BMP280;62384;53.600;10.040;2023-04-25T06:00:35;74905.50;;;6.92
74043;BMP280;62384;53.600;10.040;2023-04-25T06:03:00;75017.47;;;7.42
74043;BMP280;62384;53.600;10.040;2023-04-25T06:05:26;75101.84;;;7.44
74043;BMP280;62384;53.600;10.040;2023-04-25T06:07:53;75161.13;;;7.66
74043;BMP280;62384;53.600;10.040;2023-04-25T06:10:18;75253.69;;;7.35
74043;BMP280;62384;53.600;10.040;2023-04-25T06:12:43;75262.00;;;7.40
74043;BMP280;62384;53.600;10.040;2023-04-25T06:15:09;75290.56;;;7.61
74043;BMP280;62384;53.600;10.040;2023-04-25T06:17:35;75354.88;;;7.57
74043;BMP280;62384;53.600;10.040;2023-04-25T06:20:00;75398.34;;;7.51
74043;BMP280;62384;53.600;10.040;2023-04-25T06:22:25;75406.13;;;7.63
74043;BMP280;62384;53.600;10.040;2023-04-25T06:24:50;75484.28;;;7.73
74043;BMP280;62384;53.600;10.040;2023-04-25T06:27:16;75454.38;;;7.77
74043;BMP280;62384;53.600;10.040;2023-04-25T06:29:41;75450.44;;;7.81
74043;BMP280;62384;53.600;10.040;2023-04-25T06:32:06;75433.00;;;7.89
74043;BMP280;62384;53.600;10.040;2023-04-25T06:34:32;75397.81;;;7.93
74043;BMP280;62384;53.600;10.040;2023-04-25T06:36:57;75306.06;;;7.49
74043;BMP280;62384;53.600;10.040;2023-04-25T06:39:22;75343.69;;;7.92
74043;BMP280;62384;53.600;10.040;2023-04-25T06:41:49;75231.91;;;7.70
74043;BMP280;62384;53.600;10.040;2023-04-25T06:44:15;75366.00;;;8.14
74043;BMP280;62384;53.600;10.040;2023-04-25T06:46:40;75341.41;;;8.04
74043;BMP280;62384;53.600;10.040;2023-04-25T06:49:05;75273.09;;;7.90
74043;BMP280;62384;53.600;10.040;2023-04-25T06:51:31;75254.16;;;7.92
74043;BMP280;62384;53.600;10.040;2023-04-25T06:53:57;75274.22;;;7.91
74043;BMP280;62384;53.600;10.040;2023-04-25T06:56:22;75265.91;;;7.93
74043;BMP280;62384;53.600;10.040;2023-04-25T06:58:48;75402.91;;;8.12
74043;BMP280;62384;53.600;10.040;2023-04-25T07:01:13;75436.22;;;8.25
74043;BMP280;62384;53.600;10.040;2023-04-25T07:03:39;75469.94;;;8.36
74043;BMP280;62384;53.600;10.040;2023-04-25T07:06:04;75574.72;;;8.53
74043;BMP280;62384;53.600;10.040;2023-04-25T07:08:30;75725.47;;;8.41
74043;BMP280;62384;53.600;10.040;2023-04-25T07:10:55;75632.22;;;8.22
74043;BMP280;62384;53.600;10.040;2023-04-25T07:13:20;75678.28;;;8.35
74043;BMP280;62384;53.600;10.040;2023-04-25T07:15:46;75669.41;;;8.36
74043;BMP280;62384;53.600;10.040;2023-04-25T07:18:13;75766.56;;;8.31
74043;BMP280;62384;53.600;10.040;2023-04-25T07:20:38;75738.41;;;8.03
74043;BMP280;62384;53.600;10.040;2023-04-25T07:23:04;75715.06;;;8.37
74043;BMP280;62384;53.600;10.040;2023-04-25T07:25:29;75439.81;;;8.16
74043;BMP280;62384;53.600;10.040;2023-04-25T07:27:56;74696.28;;;8.10
74043;BMP280;62384;53.600;10.040;2023-04-25T07:30:22;74046.50;;;7.69
74043;BMP280;62384;53.600;10.040;2023-04-25T07:32:48;73552.31;;;7.19
74043;BMP280;62384;53.600;10.040;2023-04-25T07:35:13;73740.66;;;7.51
74043;BMP280;62384;53.600;10.040;2023-04-25T07:37:39;74306.53;;;7.69
74043;BMP280;62384;53.600;10.040;2023-04-25T07:40:07;74272.56;;;7.77
74043;BMP280;62384;53.600;10.040;2023-04-25T07:42:34;74386.06;;;7.98
74043;BMP280;62384;53.600;10.040;2023-04-25T07:45:00;74663.94;;;7.93
74043;BMP280;62384;53.600;10.040;2023-04-25T07:47:25;74797.78;;;8.23
74043;BMP280;62384;53.600;10.040;2023-04-25T07:49:50;74741.25;;;8.00
74043;BMP280;62384;53.600;10.040;2023-04-25T07:52:16;75099.81;;;8.44
74043;BMP280;62384;53.600;10.040;2023-04-25T07:54:41;75275.03;;;8.39
74043;BMP280;62384;53.600;10.040;2023-04-25T07:57:06;75205.59;;;8.62
74043;BMP280;62384;53.600;10.040;2023-04-25T07:59:32;75561.44;;;8.96
74043;BMP280;62384;53.600;10.040;2023-04-25T08:01:57;75520.03;;;9.32
74043;BMP280;62384;53.600;10.040;2023-04-25T08:04:23;75772.94;;;9.47
74043;BMP280;62384;53.600;10.040;2023-04-25T08:06:48;75915.28;;;9.53
74043;BMP280;62384;53.600;10.040;2023-04-25T08:09:13;75920.88;;;9.22
74043;BMP280;62384;53.600;10.040;2023-04-25T08:11:39;75880.41;;;9.15
74043;BMP280;62384;53.600;10.040;2023-04-25T08:14:05;75802.38;;;8.88
74043;BMP280;62384;53.600;10.040;2023-04-25T08:16:30;75863.81;;;9.33
74043;BMP280;62384;53.600;10.040;2023-04-25T08:18:56;75891.78;;;8.71
74043;BMP280;62384;53.600;10.040;2023-04-25T08:21:21;75768.16;;;8.58
74043;BMP280;62384;53.600;10.040;2023-04-25T08:23:46;75632.13;;;8.69
74043;BMP280;62384;53.600;10.040;2023-04-25T08:26:12;75413.09;;;8.56
74043;BMP280;62384;53.600;10.040;2023-04-25T08:28:37;74665.97;;;8.26
74043;BMP280;62384;53.600;10.040;2023-04-25T08:31:03;74230.34;;;7.98
74043;BMP280;62384;53.600;10.040;2023-04-25T08:33:28;74229.66;;;8.24
74043;BMP280;62384;53.600;10.040;2023-04-25T08:35:54;74630.91;;;8.42
74043;BMP280;62384;53.600;10.040;2023-04-25T08:38:19;74633.16;;;9.06
74043;BMP280;62384;53.600;10.040;2023-04-25T08:40:49;75392.00;;;9.24
74043;BMP280;62384;53.600;10.040;2023-04-25T08:43:18;75460.50;;;9.24
74043;BMP280;62384;53.600;10.040;2023-04-25T08:45:44;75095.88;;;9.11
74043;BMP280;62384;53.600;10.040;2023-04-25T08:48:14;74835.94;;;8.81
74043;BMP280;62384;53.600;10.040;2023-04-25T08:51:01;74024.50;;;8.54
74043;BMP280;62384;53.600;10.040;2023-04-25T08:53:31;74571.88;;;8.74
74043;BMP280;62384;53.600;10.040;2023-04-25T08:55:58;75039.34;;;8.75
74043;BMP280;62384;53.600;10.040;2023-04-25T08:58:23;75141.97;;;8.86
74043;BMP280;62384;53.600;10.040;2023-04-25T09:00:50;75439.47;;;9.19
74043;BMP280;62384;53.600;10.040;2023-04-25T09:03:16;75625.50;;;9.15
74043;BMP280;62384;53.600;10.040;2023-04-25T09:05:41;75892.03;;;9.95
74043;BMP280;62384;53.600;10.040;2023-04-25T09:08:07;76354.38;;;10.49
74043;BMP280;62384;53.600;10.040;2023-04-25T09:10:33;76310.53;;;9.82
74043;BMP280;62384;53.600;10.040;2023-04-25T09:15:31;76252.31;;;9.03
74043;BMP280;62384;53.600;10.040;2023-04-25T09:17:58;76210.41;;;9.04
74043;BMP280;62384;53.600;10.040;2023-04-25T09:20:23;76252.44;;;8.99
74043;BMP280;62384;53.600;10.040;2023-04-25T09:23:01;76213.81;;;8.51
74043;BMP280;62384;53.600;10.040;2023-04-25T09:25:34;76299.16;;;9.05
74043;BMP280;62384;53.600;10.040;2023-04-25T09:28:03;76330.59;;;9.37
74043;BMP280;62384;53.600;10.040;2023-04-25T09:30:30;76357.31;;;9.70
74043;BMP280;62384;53.600;10.040;2023-04-25T09:32:57;76429.47;;;9.86
74043;BMP280;62384;53.600;10.040;2023-04-25T09:35:23;76414.34;;;10.15
74043;BMP280;62384;53.600;10.040;2023-04-25T09:37:50;76393.97;;;9.88
74043;BMP280;62384;53.600;10.040;2023-04-25T09:40:17;76296.94;;;9.10
74043;BMP280;62384;53.600;10.040;2023-04-25T09:42:43;76176.34;;;9.16
74043;BMP280;62384;53.600;10.040;2023-04-25T09:45:12;74468.75;;;7.98
74043;BMP280;62384;53.600;10.040;2023-04-25T09:47:37;73578.56;;;7.14
74043;BMP280;62384;53.600;10.040;2023-04-25T09:50:15;73343.28;;;7.40
74043;BMP280;62384;53.600;10.040;2023-04-25T09:52:41;73756.00;;;7.72
74043;BMP280;62384;53.600;10.040;2023-04-25T09:55:06;73917.00;;;8.15
74043;BMP280;62384;53.600;10.040;2023-04-25T09:57:33;74162.53;;;8.88
74043;BMP280;62384;53.600;10.040;2023-04-25T10:00:00;74506.81;;;9.33
74043;BMP280;62384;53.600;10.040;2023-04-25T10:02:27;74838.25;;;9.87
74043;BMP280;62384;53.600;10.040;2023-04-25T10:04:53;75191.28;;;10.63
74043;BMP280;62384;53.600;10.040;2023-04-25T10:07:24;76093.69;;;11.55
74043;BMP280;62384;53.600;10.040;2023-04-25T10:09:55;76417.69;;;11.72
74043;BMP280;62384;53.600;10.040;2023-04-25T10:12:24;76502.50;;;11.20
74043;BMP280;62384;53.600;10.040;2023-04-25T10:14:50;76654.66;;;12.58
74043;BMP280;62384;53.600;10.040;2023-04-25T10:17:16;76703.88;;;12.27
74043;BMP280;62384;53.600;10.040;2023-04-25T10:19:42;76712.31;;;12.32
74043;BMP280;62384;53.600;10.040;2023-04-25T10:22:18;76684.34;;;11.91
74043;BMP280;62384;53.600;10.040;2023-04-25T10:24:46;76717.97;;;11.78
74043;BMP280;62384;53.600;10.040;2023-04-25T10:27:12;76707.06;;;11.94
74043;BMP280;62384;53.600;10.040;2023-04-25T10:29:37;76627.06;;;11.50
74043;BMP280;62384;53.600;10.040;2023-04-25T10:32:02;76692.91;;;11.66
74043;BMP280;62384;53.600;10.040;2023-04-25T10:34:39;76814.03;;;12.67
74043;BMP280;62384;53.600;10.040;2023-04-25T10:37:05;77055.84;;;14.22
74043;BMP280;62384;53.600;10.040;2023-04-25T10:39:33;77030.28;;;14.04
74043;BMP280;62384;53.600;10.040;2023-04-25T10:41:59;77138.63;;;15.50
74043;BMP280;62384;53.600;10.040;2023-04-25T10:44:30;77348.88;;;16.54
74043;BMP280;62384;53.600;10.040;2023-04-25T10:46:56;77149.97;;;15.72
74043;BMP280;62384;53.600;10.040;2023-04-25T10:49:41;77019.19;;;14.79
74043;BMP280;62384;53.600;10.040;2023-04-25T10:52:16;76811.25;;;12.78
74043;BMP280;62384;53.600;10.040;2023-04-25T10:54:53;76826.25;;;12.91
74043;BMP280;62384;53.600;10.040;2023-04-25T10:57:41;76877.19;;;13.45
74043;BMP280;62384;53.600;10.040;2023-04-25T11:00:14;76661.66;;;11.87
74043;BMP280;62384;53.600;10.040;2023-04-25T11:02:47;76641.13;;;11.72
74043;BMP280;62384;53.600;10.040;2023-04-25T11:05:26;76610.84;;;11.22
74043;BMP280;62384;53.600;10.040;2023-04-25T11:07:55;76809.19;;;12.35
74043;BMP280;62384;53.600;10.040;2023-04-25T11:10:30;77001.69;;;14.21
74043;BMP280;62384;53.600;10.040;2023-04-25T11:12:56;76819.13;;;13.16
74043;BMP280;62384;53.600;10.040;2023-04-25T11:15:21;76696.50;;;12.08
74043;BMP280;62384;53.600;10.040;2023-04-25T11:17:46;76590.53;;;11.27
74043;BMP280;62384;53.600;10.040;2023-04-25T11:20:13;76503.56;;;10.63
74043;BMP280;62384;53.600;10.040;2023-04-25T11:22:39;76450.03;;;10.09
74043;BMP280;62384;53.600;10.040;2023-04-25T11:25:07;76431.19;;;9.69
74043;BMP280;62384;53.600;10.040;2023-04-25T11:27:32;76426.50;;;9.95
74043;BMP280;62384;53.600;10.040;2023-04-25T11:29:58;76594.06;;;10.63
74043;BMP280;62384;53.600;10.040;2023-04-25T11:32:23;76712.88;;;11.81
74043;BMP280;62384;53.600;10.040;2023-04-25T11:34:48;76733.41;;;12.22
74043;BMP280;62384;53.600;10.040;2023-04-25T11:37:14;76639.38;;;11.63
74043;BMP280;62384;53.600;10.040;2023-04-25T11:39:43;76587.81;;;11.02
74043;BMP280;62384;53.600;10.040;2023-04-25T11:42:10;76524.09;;;10.60
74043;BMP280;62384;53.600;10.040;2023-04-25T11:44:35;76584.25;;;10.85
74043;BMP280;62384;53.600;10.040;2023-04-25T11:47:02;76656.41;;;11.50
74043;BMP280;62384;53.600;10.040;2023-04-25T11:49:30;76801.16;;;12.79
74043;BMP280;62384;53.600;10.040;2023-04-25T11:51:56;76797.25;;;12.64
74043;BMP280;62384;53.600;10.040;2023-04-25T11:54:22;76804.50;;;12.42
74043;BMP280;62384;53.600;10.040;2023-04-25T11:56:47;76820.22;;;12.77
74043;BMP280;62384;53.600;10.040;2023-04-25T11:59:13;76905.69;;;13.21
74043;BMP280;62384;53.600;10.040;2023-04-25T12:01:40;77034.72;;;14.13
74043;BMP280;62384;53.600;10.040;2023-04-25T12:04:22;76900.19;;;13.58
74043;BMP280;62384;53.600;10.040;2023-04-25T12:06:50;76906.59;;;13.45
74043;BMP280;62384;53.600;10.040;2023-04-25T12:09:31;76825.50;;;13.28
74043;BMP280;62384;53.600;10.040;2023-04-25T12:11:58;76914.09;;;13.52
74043;BMP280;62384;53.600;10.040;2023-04-25T12:14:29;76985.78;;;13.84
74043;BMP280;62384;53.600;10.040;2023-04-25T12:16:56;76955.66;;;13.62
74043;BMP280;62384;53.600;10.040;2023-04-25T12:19:23;76946.75;;;13.78
74043;BMP280;62384;53.600;10.040;2023-04-25T12:21:49;76921.53;;;13.84
74043;BMP280;62384;53.600;10.040;2023-04-25T12:24:23;76955.81;;;14.30
74043;BMP280;62384;53.600;10.040;2023-04-25T12:27:03;76988.38;;;14.35
74043;BMP280;62384;53.600;10.040;2023-04-25T12:29:31;77158.53;;;15.44
74043;BMP280;62384;53.600;10.040;2023-04-25T12:31:56;77096.44;;;14.99
74043;BMP280;62384;53.600;10.040;2023-04-25T12:34:22;77187.22;;;15.88
74043;BMP280;62384;53.600;10.040;2023-04-25T12:36:50;77094.63;;;15.23
74043;BMP280;62384;53.600;10.040;2023-04-25T12:39:17;77179.72;;;15.81
74043;BMP280;62384;53.600;10.040;2023-04-25T12:41:43;77105.66;;;15.07
74043;BMP280;62384;53.600;10.040;2023-04-25T12:44:08;77035.81;;;14.72
74043;BMP280;62384;53.600;10.040;2023-04-25T12:46:34;77046.06;;;15.00
74043;BMP280;62384;53.600;10.040;2023-04-25T12:48:59;76940.81;;;14.10
74043;BMP280;62384;53.600;10.040;2023-04-25T12:51:25;76803.63;;;13.09
74043;BMP280;62384;53.600;10.040;2023-04-25T12:53:52;76737.47;;;12.58
74043;BMP280;62384;53.600;10.040;2023-04-25T12:56:18;76634.25;;;11.66
74043;BMP280;62384;53.600;10.040;2023-04-25T12:58:43;76591.72;;;11.35
74043;BMP280;62384;53.600;10.040;2023-04-25T13:01:09;76707.78;;;11.90
74043;BMP280;62384;53.600;10.040;2023-04-25T13:03:37;76746.00;;;12.52
74043;BMP280;62384;53.600;10.040;2023-04-25T13:06:02;76960.00;;;13.90
74043;BMP280;62384;53.600;10.040;2023-04-25T13:08:27;77183.31;;;15.59
74043;BMP280;62384;53.600;10.040;2023-04-25T13:10:52;77257.66;;;16.56
74043;BMP280;62384;53.600;10.040;2023-04-25T13:13:18;77243.59;;;16.49
74043;BMP280;62384;53.600;10.040;2023-04-25T13:15:43;77057.09;;;14.77
74043;BMP280;62384;53.600;10.040;2023-04-25T13:18:08;76980.03;;;14.52
74043;BMP280;62384;53.600;10.040;2023-04-25T13:20:34;76587.72;;;11.13
74043;BMP280;62384;53.600;10.040;2023-04-25T13:22:59;76432.69;;;9.87
74043;BMP280;62384;53.600;10.040;2023-04-25T13:25:24;76428.91;;;9.86
74043;BMP280;62384;53.600;10.040;2023-04-25T13:27:51;76440.94;;;9.96
74043;BMP280;62384;53.600;10.040;2023-04-25T13:30:17;76454.41;;;10.11
74043;BMP280;62384;53.600;10.040;2023-04-25T13:32:42;76580.47;;;10.91
74043;BMP280;62384;53.600;10.040;2023-04-25T13:35:10;76702.97;;;11.84
74043;BMP280;62384;53.600;10.040;2023-04-25T13:37:37;76840.84;;;12.81
74043;BMP280;62384;53.600;10.040;2023-04-25T13:40:05;76887.69;;;13.17
74043;BMP280;62384;53.600;10.040;2023-04-25T13:42:31;76930.44;;;14.01
74043;BMP280;62384;53.600;10.040;2023-04-25T13:44:57;76753.44;;;12.51
74043;BMP280;62384;53.600;10.040;2023-04-25T13:47:23;76609.56;;;11.51
74043;BMP280;62384;53.600;10.040;2023-04-25T13:49:49;76493.16;;;10.65
74043;BMP280;62384;53.600;10.040;2023-04-25T13:52:14;76314.16;;;9.62
74043;BMP280;62384;53.600;10.040;2023-04-25T13:54:40;76165.09;;;9.08
74043;BMP280;62384;53.600;10.040;2023-04-25T13:57:05;76192.19;;;9.27
74043;BMP280;62384;53.600;10.040;2023-04-25T13:59:31;76260.31;;;9.29
74043;BMP280;62384;53.600;10.040;2023-04-25T14:01:58;76277.94;;;9.23
74043;BMP280;62384;53.600;10.040;2023-04-25T14:04:23;76307.63;;;9.35